Time;durP1;ratioP1;P1;durP2;ratioP2;P2;SDS_P1;SDS_P2;PMS_P1;PMS_P2;Temp;Humidity;BMP_temperature;BMP_pressure;BME280_temperature;BME280_humidity;BME280_pressure;Samples;Min_cycle;Max_cycle;Signal;HPM_P1;HPM_P2
2022/03/23 00:02:18;;;;;;;73.72;51.78;;;7.50;99.90;;;;;;5069398;28;20037;-78
2022/03/23 00:04:43;;;;;;;70.82;50.15;;;7.50;99.90;;;;;;5062117;28;20545;-78
2022/03/23 00:07:09;;;;;;;69.57;53.05;;;7.30;99.90;;;;;;5067897;28;20041;-78
2022/03/23 00:09:35;;;;;;;75.63;53.97;;;7.30;99.90;;;;;;5061249;28;20060;-77
2022/03/23 00:12:01;;;;;;;82.65;55.80;;;7.30;99.90;;;;;;5050412;28;20037;-77
2022/03/23 00:14:26;;;;;;;75.30;55.17;;;7.20;99.90;;;;;;5066733;28;20076;-75
2022/03/23 00:16:52;;;;;;;74.25;52.50;;;7.20;99.90;;;;;;5058290;28;20205;-77
2022/03/23 00:19:17;;;;;;;72.35;54.35;;;7.20;99.90;;;;;;5064889;28;20044;-78
2022/03/23 00:21:43;;;;;;;100.50;54.85;;;7.10;99.90;;;;;;5068660;28;20495;-78
2022/03/23 00:24:09;;;;;;;74.18;53.75;;;7.20;99.90;;;;;;5061627;28;20041;-77
2022/03/23 00:26:36;;;;;;;76.10;52.55;;;7.10;99.90;;;;;;5048635;28;20041;-78
2022/03/23 00:29:03;;;;;;;73.28;50.40;;;7.10;99.90;;;;;;5056747;28;20522;-77
2022/03/23 00:31:30;;;;;;;68.35;49.78;;;7.00;99.90;;;;;;5055061;28;20074;-77
2022/03/23 00:33:57;;;;;;;73.57;51.03;;;7.00;99.90;;;;;;5055355;28;20056;-77
2022/03/23 00:36:23;;;;;;;62.72;46.97;;;7.00;99.90;;;;;;5058777;28;20116;-77
2022/03/23 00:38:50;;;;;;;73.47;52.25;;;7.00;99.90;;;;;;5066254;28;20055;-77
2022/03/23 00:41:16;;;;;;;76.38;54.90;;;7.00;99.90;;;;;;5053884;28;20079;-77
2022/03/23 00:43:41;;;;;;;70.78;51.60;;;7.20;99.90;;;;;;5061314;28;20156;-77
2022/03/23 00:46:07;;;;;;;74.20;55.22;;;7.10;99.90;;;;;;5060183;28;20418;-77
2022/03/23 00:48:33;;;;;;;91.95;55.58;;;7.10;99.90;;;;;;5066838;28;20490;-77
2022/03/23 00:50:59;;;;;;;104.57;56.45;;;7.10;99.90;;;;;;5068872;28;20392;-77
2022/03/23 00:53:24;;;;;;;75.97;52.20;;;7.00;99.90;;;;;;5067634;28;20036;-77
2022/03/23 00:55:50;;;;;;;69.55;49.17;;;7.00;99.90;;;;;;5064320;28;20501;-77
2022/03/23 00:58:16;;;;;;;59.97;42.67;;;6.90;99.90;;;;;;5058002;28;20498;-77
2022/03/23 01:00:43;;;;;;;60.30;42.28;;;6.70;99.90;;;;;;5059860;28;20035;-77
2022/03/23 01:03:10;;;;;;;62.53;45.30;;;6.60;99.90;;;;;;5068629;28;20667;-77
2022/03/23 01:05:35;;;;;;;66.40;47.88;;;6.70;99.90;;;;;;5054275;28;20044;-77
2022/03/23 01:08:01;;;;;;;66.65;46.72;;;6.80;99.90;;;;;;5062326;28;20124;-76
2022/03/23 01:10:27;;;;;;;71.90;52.13;;;6.70;99.90;;;;;;5068167;28;20068;-77
2022/03/23 01:12:54;;;;;;;76.32;52.70;;;6.80;99.90;;;;;;5065667;28;20445;-77
2022/03/23 01:15:20;;;;;;;69.05;48.80;;;6.80;99.90;;;;;;5048391;28;20442;-77
2022/03/23 01:17:46;;;;;;;67.28;47.70;;;6.70;99.90;;;;;;5048946;28;20048;-77
2022/03/23 01:20:14;;;;;;;70.78;51.63;;;6.70;99.90;;;;;;5062825;28;20052;-77
2022/03/23 01:22:41;;;;;;;75.57;56.28;;;6.80;99.90;;;;;;5064773;28;20055;-77
2022/03/23 01:25:08;;;;;;;85.05;52.15;;;6.80;99.90;;;;;;5057619;28;20037;-77
2022/03/23 01:27:35;;;;;;;78.72;55.47;;;6.80;99.90;;;;;;5072870;28;20040;-77
2022/03/23 01:30:02;;;;;;;85.95;61.40;;;6.90;99.90;;;;;;5071337;28;20036;-77
2022/03/23 01:32:29;;;;;;;78.10;55.40;;;7.00;99.90;;;;;;5071902;28;20167;-77
2022/03/23 01:34:55;;;;;;;75.10;54.53;;;6.90;99.90;;;;;;5056616;28;20151;-77
2022/03/23 01:37:20;;;;;;;82.28;57.10;;;6.90;99.90;;;;;;5052386;28;20037;-77
2022/03/23 01:39:46;;;;;;;75.43;54.60;;;6.80;99.90;;;;;;5071476;28;20051;-79
2022/03/23 01:42:11;;;;;;;75.05;54.17;;;6.80;99.90;;;;;;5073281;28;20044;-78
2022/03/23 01:44:37;;;;;;;73.80;57.45;;;6.90;99.90;;;;;;5070543;28;20040;-78
2022/03/23 01:47:14;;;;;;;75.47;56.83;;;6.90;99.90;;;;;;5071964;28;20775;-77
2022/03/23 01:49:48;;;;;;;80.60;54.53;;;6.90;99.90;;;;;;5053755;28;20057;-77
2022/03/23 01:52:19;;;;;;;74.53;53.42;;;6.90;99.90;;;;;;5055549;28;20049;-77
2022/03/23 01:54:45;;;;;;;75.80;53.28;;;7.00;99.90;;;;;;5066952;28;20040;-78
2022/03/23 01:57:13;;;;;;;67.45;50.28;;;6.90;99.90;;;;;;5062874;28;20058;-77
2022/03/23 01:59:39;;;;;;;69.90;52.05;;;6.80;99.90;;;;;;5041972;28;20106;-76
2022/03/23 02:02:06;;;;;;;72.15;54.10;;;6.90;99.90;;;;;;5061519;28;20527;-77
2022/03/23 02:04:33;;;;;;;72.43;54.10;;;6.90;99.90;;;;;;5064749;28;20060;-77
2022/03/23 02:06:58;;;;;;;72.55;53.28;;;7.00;99.90;;;;;;5061703;28;20032;-77
2022/03/23 02:09:26;;;;;;;67.40;49.47;;;6.80;99.90;;;;;;5062651;28;20098;-78
2022/03/23 02:11:53;;;;;;;73.68;50.83;;;6.60;99.90;;;;;;5049017;28;20044;-79
2022/03/23 02:14:20;;;;;;;71.80;49.80;;;6.70;99.90;;;;;;5069686;28;20052;-78
2022/03/23 02:16:47;;;;;;;72.03;50.53;;;6.60;99.90;;;;;;5070848;28;20151;-77
2022/03/23 02:19:13;;;;;;;65.25;47.80;;;6.60;99.90;;;;;;5057512;28;20128;-78
2022/03/23 02:21:43;;;;;;;72.03;52.75;;;6.40;99.90;;;;;;5070813;28;20537;-78
2022/03/23 02:24:09;;;;;;;70.95;50.03;;;6.50;99.90;;;;;;5068522;28;20581;-78
2022/03/23 02:26:37;;;;;;;76.95;52.70;;;6.50;99.90;;;;;;5068166;28;20116;-78
2022/03/23 02:29:03;;;;;;;65.45;50.38;;;6.50;99.90;;;;;;5061186;28;20040;-77
2022/03/23 02:31:28;;;;;;;70.82;53.50;;;6.40;99.90;;;;;;5071181;28;20040;-78
2022/03/23 02:33:55;;;;;;;63.38;46.40;;;6.50;99.90;;;;;;5081015;28;20063;-77
2022/03/23 02:36:21;;;;;;;70.95;49.20;;;6.40;99.90;;;;;;5075370;28;20033;-77
2022/03/23 02:38:46;;;;;;;62.15;46.40;;;6.40;99.90;;;;;;5056537;28;20049;-78
2022/03/23 02:41:13;;;;;;;70.22;52.83;;;6.20;99.90;;;;;;5068287;28;20059;-77
2022/03/23 02:43:39;;;;;;;67.50;51.58;;;6.30;99.90;;;;;;5076502;28;20053;-77
2022/03/23 02:46:05;;;;;;;67.15;49.38;;;6.40;99.90;;;;;;5067946;28;20183;-78
2022/03/23 02:48:31;;;;;;;63.38;47.00;;;6.20;99.90;;;;;;5056836;28;20057;-77
2022/03/23 02:50:57;;;;;;;62.53;47.03;;;6.20;99.90;;;;;;5071337;28;20079;-77
2022/03/23 03:02:02;;;;;;;45.85;37.08;;;5.80;99.90;;;;;;5069359;28;20048;-77
2022/03/23 03:04:29;;;;;;;47.70;36.65;;;5.70;99.90;;;;;;5067321;28;20040;-77
2022/03/23 03:06:57;;;;;;;58.08;40.40;;;5.60;99.90;;;;;;5073172;28;20037;-77
2022/03/23 03:09:23;;;;;;;47.38;35.72;;;5.70;99.90;;;;;;5057535;28;20506;-77
2022/03/23 03:11:48;;;;;;;46.80;36.08;;;5.70;99.90;;;;;;5070483;28;20037;-77
2022/03/23 03:14:14;;;;;;;56.35;41.33;;;5.70;99.90;;;;;;5068289;28;20048;-77
2022/03/23 03:16:40;;;;;;;48.55;32.72;;;5.80;99.90;;;;;;5069958;28;20127;-77
2022/03/23 03:19:07;;;;;;;47.88;36.67;;;5.70;99.90;;;;;;5055913;28;20135;-77
2022/03/23 03:21:32;;;;;;;48.80;36.40;;;5.60;99.90;;;;;;5064134;28;20483;-76
2022/03/23 03:23:58;;;;;;;55.17;38.95;;;5.50;99.90;;;;;;5065102;28;20091;-77
2022/03/23 03:26:24;;;;;;;63.55;43.28;;;5.60;99.90;;;;;;5070551;28;20040;-77
2022/03/23 03:28:50;;;;;;;59.35;42.85;;;5.70;99.90;;;;;;5064733;28;20477;-77
2022/03/23 03:31:16;;;;;;;52.85;38.70;;;5.70;99.90;;;;;;5070325;28;20043;-76
2022/03/23 03:33:42;;;;;;;40.28;30.60;;;5.70;99.90;;;;;;5068907;28;20623;-77
2022/03/23 03:36:08;;;;;;;47.80;35.80;;;5.60;99.90;;;;;;5069716;28;20036;-77
2022/03/23 03:38:35;;;;;;;48.15;35.92;;;5.50;99.90;;;;;;5061578;28;20045;-76
2022/03/23 03:41:02;;;;;;;53.33;40.90;;;5.60;99.90;;;;;;5064316;28;20040;-76
2022/03/23 03:43:28;;;;;;;48.90;36.08;;;5.60;99.90;;;;;;5068181;28;20033;-76
2022/03/23 03:45:54;;;;;;;52.67;39.85;;;5.60;99.90;;;;;;5063331;28;20065;-76
2022/03/23 03:48:20;;;;;;;57.60;42.83;;;5.70;99.90;;;;;;5067652;28;20127;-78
2022/03/23 03:50:46;;;;;;;51.72;40.28;;;5.70;99.90;;;;;;5068310;28;20128;-78
2022/03/23 03:53:12;;;;;;;57.17;38.67;;;5.70;99.90;;;;;;5056416;28;20585;-80
2022/03/23 03:55:39;;;;;;;51.92;39.22;;;5.60;99.90;;;;;;5058593;28;20215;-78
2022/03/23 03:58:06;;;;;;;35.50;30.00;;;5.60;99.90;;;;;;5059358;28;20379;-77
2022/03/23 04:00:35;;;;;;;31.20;23.77;;;5.30;99.90;;;;;;5060328;28;20182;-76
2022/03/23 04:03:02;;;;;;;32.95;25.58;;;4.90;99.90;;;;;;5064334;28;20056;-77
2022/03/23 04:05:28;;;;;;;33.10;26.02;;;4.90;99.90;;;;;;5066222;28;20514;-78
2022/03/23 04:07:57;;;;;;;28.45;23.92;;;4.90;99.90;;;;;;5066840;28;20032;-78
2022/03/23 04:10:23;;;;;;;34.95;27.70;;;4.70;99.90;;;;;;5058240;28;20072;-79
2022/03/23 04:12:49;;;;;;;36.97;29.58;;;4.90;99.90;;;;;;5071575;28;20070;-77
2022/03/23 04:15:15;;;;;;;40.42;31.38;;;5.00;99.90;;;;;;5068544;28;20087;-78
2022/03/23 04:17:42;;;;;;;44.67;35.25;;;5.00;99.90;;;;;;5066030;28;20045;-78
2022/03/23 04:20:09;;;;;;;43.10;31.80;;;5.20;99.90;;;;;;5066673;28;20043;-77
2022/03/23 04:22:34;;;;;;;45.20;34.22;;;5.00;99.90;;;;;;5058496;28;20083;-77
2022/03/23 04:25:00;;;;;;;52.63;40.45;;;5.10;99.90;;;;;;5066726;28;20075;-77
2022/03/23 04:27:25;;;;;;;43.10;33.50;;;5.30;99.90;;;;;;5068899;28;20123;-77
2022/03/23 04:29:51;;;;;;;61.35;43.28;;;5.20;99.90;;;;;;5068661;28;20071;-77
2022/03/23 04:32:17;;;;;;;49.10;34.70;;;5.20;99.90;;;;;;5069793;28;20037;-77
2022/03/23 04:34:43;;;;;;;41.88;30.23;;;5.20;99.90;;;;;;5058072;28;20041;-78
2022/03/23 04:37:08;;;;;;;60.28;38.42;;;5.10;99.90;;;;;;5058306;28;20025;-78
2022/03/23 04:39:34;;;;;;;42.15;31.70;;;5.20;99.90;;;;;;5068459;28;20131;-77
2022/03/23 04:42:00;;;;;;;43.50;33.60;;;5.00;99.90;;;;;;5068154;28;20037;-77
2022/03/23 04:44:25;;;;;;;70.80;49.22;;;5.10;99.90;;;;;;5055532;28;20045;-78
2022/03/23 04:46:51;;;;;;;43.42;33.33;;;5.20;99.90;;;;;;5053437;28;20040;-78
2022/03/23 04:49:16;;;;;;;64.15;42.85;;;5.10;99.90;;;;;;5052012;28;20083;-78
2022/03/23 04:51:42;;;;;;;47.80;35.60;;;5.10;99.90;;;;;;5053823;28;20060;-78
2022/03/23 04:54:08;;;;;;;42.53;34.85;;;5.10;99.90;;;;;;5057718;28;20095;-78
2022/03/23 04:56:33;;;;;;;49.65;36.72;;;5.00;99.90;;;;;;5058903;28;20491;-78
2022/03/23 04:58:59;;;;;;;39.65;30.98;;;4.90;99.90;;;;;;5067224;28;20391;-77
2022/03/23 05:01:25;;;;;;;45.97;32.05;;;4.80;99.90;;;;;;5068128;28;20049;-77
2022/03/23 05:03:52;;;;;;;42.25;32.25;;;4.90;99.90;;;;;;5069008;28;20505;-78
2022/03/23 05:06:18;;;;;;;39.28;29.80;;;4.90;99.90;;;;;;5067125;28;20075;-78
2022/03/23 05:08:44;;;;;;;46.15;35.63;;;4.80;99.90;;;;;;5065370;28;20040;-78
2022/03/23 05:11:09;;;;;;;42.78;30.98;;;5.00;99.90;;;;;;5062436;28;20051;-77
2022/03/23 05:13:35;;;;;;;37.88;28.02;;;4.80;99.90;;;;;;5055466;28;20044;-78
2022/03/23 05:16:01;;;;;;;35.40;29.27;;;4.70;99.90;;;;;;5058287;28;20044;-77
2022/03/23 05:18:28;;;;;;;41.92;33.22;;;4.60;99.90;;;;;;5058858;28;20044;-78
2022/03/23 05:20:53;;;;;;;36.20;27.60;;;4.70;99.90;;;;;;5065927;28;20037;-78
2022/03/23 05:23:19;;;;;;;41.20;31.10;;;4.60;99.90;;;;;;5065943;28;20098;-76
2022/03/23 05:25:44;;;;;;;51.25;39.00;;;4.60;99.90;;;;;;5066470;28;20402;-76
2022/03/23 05:28:10;;;;;;;30.98;25.05;;;4.70;99.90;;;;;;5064133;28;20072;-76
2022/03/23 05:30:36;;;;;;;43.60;32.70;;;4.60;99.90;;;;;;5067808;28;20044;-78
2022/03/23 05:33:03;;;;;;;37.08;28.40;;;4.70;99.90;;;;;;5068189;28;20037;-78
2022/03/23 05:35:28;;;;;;;43.92;33.38;;;4.50;99.90;;;;;;5064675;28;20724;-79
2022/03/23 05:37:54;;;;;;;38.75;27.65;;;4.50;99.90;;;;;;5050497;28;20041;-78
2022/03/23 05:40:21;;;;;;;54.00;29.85;;;4.50;99.90;;;;;;5049295;28;20061;-77
2022/03/23 05:42:47;;;;;;;43.22;31.98;;;4.60;99.90;;;;;;5063774;28;20614;-78
2022/03/23 05:45:13;;;;;;;51.20;37.17;;;4.60;99.90;;;;;;5049618;28;20041;-79
2022/03/23 05:47:40;;;;;;;46.10;34.53;;;4.50;99.90;;;;;;5065052;28;20187;-76
2022/03/23 05:50:07;;;;;;;49.75;33.80;;;4.50;99.90;;;;;;5059195;28;20056;-79
2022/03/23 05:52:33;;;;;;;51.15;39.42;;;4.50;99.90;;;;;;5068679;28;20106;-75
2022/03/23 05:55:01;;;;;;;62.53;45.92;;;4.60;99.90;;;;;;5071198;28;20063;-81
2022/03/23 05:57:28;;;;;;;73.63;50.75;;;4.90;99.90;;;;;;5058463;28;20068;-79
2022/03/23 05:59:54;;;;;;;68.38;49.45;;;5.00;99.90;;;;;;5065696;28;20037;-82
2022/03/23 06:02:19;;;;;;;68.57;49.33;;;5.10;99.90;;;;;;5057914;28;20044;-80
2022/03/23 06:04:46;;;;;;;75.22;50.75;;;5.20;99.90;;;;;;5056999;28;20045;-80
2022/03/23 06:07:12;;;;;;;62.20;43.85;;;5.30;99.90;;;;;;5067636;28;20071;-80
2022/03/23 06:09:38;;;;;;;62.22;43.60;;;5.10;99.90;;;;;;5061852;28;20045;-79
2022/03/23 06:12:04;;;;;;;63.25;46.15;;;5.10;99.90;;;;;;5070559;28;20486;-79
2022/03/23 06:14:31;;;;;;;79.18;47.92;;;5.10;99.90;;;;;;5057994;28;20040;-80
2022/03/23 06:16:57;;;;;;;60.97;45.78;;;5.20;99.90;;;;;;5063720;28;20435;-79
2022/03/23 06:19:23;;;;;;;74.22;44.22;;;5.20;99.90;;;;;;5064243;28;20048;-79
2022/03/23 06:21:48;;;;;;;61.22;43.50;;;5.20;99.90;;;;;;5071016;28;20032;-80
2022/03/23 06:24:14;;;;;;;66.72;48.70;;;5.30;99.90;;;;;;5065994;28;20094;-79
2022/03/23 06:26:39;;;;;;;75.47;48.85;;;5.30;99.90;;;;;;5072842;28;20044;-79
2022/03/23 06:29:05;;;;;;;65.18;48.97;;;5.40;99.90;;;;;;5071382;28;20040;-80
2022/03/23 06:31:31;;;;;;;71.18;50.60;;;5.50;99.90;;;;;;5072507;28;20063;-80
2022/03/23 06:33:57;;;;;;;72.10;53.70;;;5.70;99.90;;;;;;5072748;28;20486;-80
2022/03/23 06:36:22;;;;;;;86.68;49.72;;;5.90;99.90;;;;;;5072144;28;20036;-80
2022/03/23 06:38:50;;;;;;;68.13;45.92;;;5.80;99.90;;;;;;5071632;28;20086;-80
2022/03/23 06:41:15;;;;;;;62.75;44.13;;;5.90;99.90;;;;;;5072513;28;20044;-79
2022/03/23 06:43:41;;;;;;;62.80;44.97;;;5.90;99.90;;;;;;5074237;28;20039;-80
2022/03/23 06:46:07;;;;;;;61.90;47.83;;;5.80;99.90;;;;;;5074215;28;20078;-80
2022/03/23 06:48:33;;;;;;;74.28;54.28;;;6.00;99.90;;;;;;5067733;28;20057;-79
2022/03/23 06:50:59;;;;;;;61.10;44.75;;;6.20;99.90;;;;;;5077001;28;20533;-79
2022/03/23 06:53:25;;;;;;;65.20;46.90;;;6.20;99.90;;;;;;5072301;28;20040;-79
2022/03/23 06:55:50;;;;;;;73.72;52.40;;;6.20;99.90;;;;;;5067440;28;20073;-80
2022/03/23 06:58:16;;;;;;;73.45;51.30;;;6.30;99.90;;;;;;5062170;28;20040;-79
2022/03/23 07:00:42;;;;;;;72.20;53.63;;;6.40;99.90;;;;;;5070367;28;20052;-80
2022/03/23 07:03:08;;;;;;;94.72;55.72;;;6.60;99.90;;;;;;5056570;28;20044;-82
2022/03/23 07:05:35;;;;;;;82.95;57.90;;;6.70;99.90;;;;;;5058413;28;20121;-79
2022/03/23 07:10:45;;;;;;;82.22;60.80;;;7.00;99.90;;;;;;5070412;28;20048;-84
2022/03/23 07:13:10;;;;;;;81.72;57.70;;;7.10;99.90;;;;;;5066768;28;20116;-78
2022/03/23 07:15:36;;;;;;;82.68;59.15;;;7.30;99.90;;;;;;5055693;28;20621;-79
2022/03/23 07:18:02;;;;;;;101.45;59.58;;;7.40;99.90;;;;;;5065651;28;20554;-79
2022/03/23 07:20:28;;;;;;;82.85;61.70;;;7.50;99.90;;;;;;5063806;28;20045;-79
2022/03/23 07:22:53;;;;;;;79.72;59.45;;;7.70;99.90;;;;;;5067928;28;20043;-81
2022/03/23 07:25:19;;;;;;;76.25;59.53;;;7.80;99.90;;;;;;5071683;28;20048;-79
2022/03/23 07:27:45;;;;;;;80.65;57.42;;;7.90;99.90;;;;;;5048660;28;20631;-77
2022/03/23 07:30:11;;;;;;;80.15;59.67;;;8.10;99.90;;;;;;5072188;28;20087;-80
2022/03/23 07:32:38;;;;;;;79.03;57.13;;;8.20;99.90;;;;;;5064668;28;20175;-80
2022/03/23 07:35:04;;;;;;;77.55;58.30;;;8.30;99.90;;;;;;5068004;28;20444;-80
2022/03/23 07:37:31;;;;;;;82.55;57.40;;;8.40;99.90;;;;;;5064916;28;20582;-80
2022/03/23 07:39:56;;;;;;;80.05;58.13;;;8.50;99.90;;;;;;5065602;28;20148;-80
2022/03/23 07:42:22;;;;;;;68.10;53.63;;;8.70;99.90;;;;;;5070673;28;20068;-80
2022/03/23 07:44:47;;;;;;;71.15;54.03;;;8.80;99.90;;;;;;5070110;28;20449;-80
2022/03/23 07:47:15;;;;;;;70.30;53.90;;;8.90;99.90;;;;;;5063688;28;20045;-80
2022/03/23 07:49:41;;;;;;;70.50;54.55;;;9.00;99.90;;;;;;5070956;28;20354;-80
2022/03/23 07:52:08;;;;;;;70.10;53.47;;;9.20;99.90;;;;;;5070401;28;20049;-77
2022/03/23 07:54:34;;;;;;;64.28;49.05;;;9.40;99.90;;;;;;5061044;28;20083;-82
2022/03/23 07:57:00;;;;;;;73.40;50.83;;;9.40;99.90;;;;;;5061844;28;20044;-80
2022/03/23 07:59:26;;;;;;;62.13;47.88;;;9.50;99.90;;;;;;5059720;28;20044;-81
2022/03/23 08:01:52;;;;;;;69.88;50.45;;;9.70;99.90;;;;;;5061481;28;20116;-83
2022/03/23 08:04:18;;;;;;;66.55;49.22;;;9.80;99.90;;;;;;5060814;28;20124;-83
2022/03/23 08:06:43;;;;;;;73.65;48.97;;;9.90;99.90;;;;;;5060851;28;20074;-83
2022/03/23 08:09:09;;;;;;;63.83;46.40;;;10.00;99.90;;;;;;5062957;28;20041;-85
2022/03/23 08:11:35;;;;;;;63.72;47.13;;;10.20;99.90;;;;;;5065666;28;20037;-83
2022/03/23 08:14:01;;;;;;;63.22;45.10;;;10.30;99.90;;;;;;5053967;28;20125;-83
2022/03/23 08:16:27;;;;;;;58.15;45.03;;;10.40;99.90;;;;;;5082966;28;20112;-79
2022/03/23 08:18:53;;;;;;;58.50;43.67;;;10.50;99.90;;;;;;5054227;28;20096;-80
2022/03/23 08:21:21;;;;;;;52.55;42.88;;;10.60;99.90;;;;;;5057345;28;20033;-79
2022/03/23 08:23:47;;;;;;;53.75;41.38;;;10.80;99.90;;;;;;5057612;28;20512;-80
2022/03/23 08:26:14;;;;;;;56.78;42.58;;;10.90;99.90;;;;;;5067451;28;20395;-80
2022/03/23 08:28:44;;;;;;;57.20;41.33;;;10.90;99.90;;;;;;5066904;28;20052;-80
2022/03/23 08:31:11;;;;;;;52.50;38.85;;;11.00;99.90;;;;;;5056710;28;20502;-78
2022/03/23 08:33:37;;;;;;;52.63;39.67;;;11.20;99.90;;;;;;5059784;28;20417;-80
2022/03/23 08:36:05;;;;;;;52.42;39.67;;;11.30;99.90;;;;;;5067438;28;20028;-83
2022/03/23 08:38:31;;;;;;;58.15;40.85;;;11.40;99.90;;;;;;5068364;28;20403;-80
2022/03/23 08:40:57;;;;;;;49.30;38.33;;;11.60;99.90;;;;;;5065997;28;20045;-80
2022/03/23 08:43:23;;;;;;;48.92;35.10;;;11.80;99.90;;;;;;5068294;28;20127;-80
2022/03/23 08:45:49;;;;;;;70.07;36.20;;;11.70;99.90;;;;;;5062554;28;20502;-79
2022/03/23 08:48:18;;;;;;;50.45;36.33;;;11.80;99.90;;;;;;5066832;28;20248;-80
2022/03/23 08:50:44;;;;;;;44.70;35.17;;;12.00;99.90;;;;;;5056750;28;20063;-81
2022/03/23 08:53:10;;;;;;;51.15;34.83;;;12.10;99.90;;;;;;5056839;28;20033;-81
2022/03/23 08:55:36;;;;;;;46.20;33.10;;;12.20;99.90;;;;;;5060490;28;20384;-79
2022/03/23 08:58:01;;;;;;;46.03;35.53;;;12.30;99.90;;;;;;5061272;28;20431;-80
2022/03/23 09:00:27;;;;;;;43.65;32.58;;;12.40;99.90;;;;;;5058156;28;20044;-79
2022/03/23 09:02:53;;;;;;;45.65;32.85;;;12.70;99.90;;;;;;5065072;28;20043;-82
2022/03/23 09:05:19;;;;;;;49.80;33.47;;;12.70;99.90;;;;;;5067011;28;20123;-83
2022/03/23 09:07:45;;;;;;;42.17;32.80;;;12.80;99.90;;;;;;5082377;28;20100;-81
2022/03/23 09:10:13;;;;;;;44.45;30.83;;;12.90;99.90;;;;;;5060377;28;20406;-82
2022/03/23 09:12:42;;;;;;;44.53;30.52;;;13.00;99.90;;;;;;5071286;28;20037;-81
2022/03/23 09:15:09;;;;;;;35.33;27.00;;;13.20;99.90;;;;;;5065114;28;20387;-80
2022/03/23 09:17:36;;;;;;;45.70;28.90;;;13.40;99.90;;;;;;5053385;28;20044;-81
2022/03/23 09:20:04;;;;;;;37.05;27.35;;;13.40;99.90;;;;;;5068508;28;20044;-80
2022/03/23 09:22:34;;;;;;;39.13;29.05;;;13.50;99.90;;;;;;5064577;28;20044;-80
2022/03/23 09:25:02;;;;;;;42.70;29.88;;;13.50;99.90;;;;;;5062584;28;20486;-80
2022/03/23 09:27:28;;;;;;;39.55;29.15;;;13.80;99.90;;;;;;5063600;28;20491;-79
2022/03/23 09:29:53;;;;;;;39.15;26.80;;;13.80;99.90;;;;;;5059339;28;20051;-79
2022/03/23 09:32:19;;;;;;;43.13;27.40;;;13.90;99.90;;;;;;5068642;28;20039;-80
2022/03/23 09:34:45;;;;;;;41.40;27.42;;;14.00;99.90;;;;;;5069421;28;20379;-79
2022/03/23 09:39:55;;;;;;;35.45;23.33;;;14.30;99.90;;;;;;5067633;28;20060;-77
2022/03/23 09:42:23;;;;;;;41.45;27.85;;;14.50;99.90;;;;;;5073121;28;20029;-76
2022/03/23 09:44:49;;;;;;;41.97;27.38;;;14.50;99.90;;;;;;5070765;28;20040;-80
2022/03/23 09:47:15;;;;;;;42.67;24.75;;;14.60;99.90;;;;;;5070063;28;20036;-80
2022/03/23 09:49:42;;;;;;;34.67;26.00;;;14.80;99.90;;;;;;5072097;28;20118;-81
2022/03/23 09:52:08;;;;;;;30.45;22.15;;;14.70;99.90;;;;;;5065948;28;20058;-80
2022/03/23 09:54:33;;;;;;;37.40;24.30;;;14.80;99.90;;;;;;5069224;28;20048;-81
2022/03/23 09:56:59;;;;;;;34.50;25.88;;;14.90;99.90;;;;;;5071804;28;20067;-82
2022/03/23 09:59:24;;;;;;;34.72;24.40;;;15.00;99.90;;;;;;5058424;28;20045;-82
2022/03/23 10:01:50;;;;;;;34.83;25.08;;;15.00;99.90;;;;;;5045629;28;20493;-82
2022/03/23 10:04:19;;;;;;;35.78;25.20;;;15.00;99.90;;;;;;5070130;28;20045;-82
2022/03/23 10:07:17;;;;;;;33.28;24.25;;;15.10;99.90;;;;;;5060830;28;20043;-82
2022/03/23 10:10:04;;;;;;;29.60;21.98;;;15.20;99.90;;;;;;5062977;28;20103;-82
2022/03/23 10:13:01;;;;;;;31.63;22.50;;;15.30;99.90;;;;;;5057508;28;20045;-82
2022/03/23 10:15:48;;;;;;;36.72;23.05;;;15.50;98.30;;;;;;5063277;28;20052;-77
2022/03/23 10:18:51;;;;;;;26.63;20.83;;;15.40;96.90;;;;;;5064954;28;20040;-75
2022/03/23 10:21:17;;;;;;;27.40;20.92;;;15.50;97.60;;;;;;5061972;28;20044;-84
2022/03/23 10:24:11;;;;;;;28.58;19.90;;;15.60;93.20;;;;;;5066153;28;20426;-79
2022/03/23 10:26:38;;;;;;;27.98;20.65;;;15.70;93.90;;;;;;5051207;28;20044;-81
2022/03/23 10:29:11;;;;;;;31.85;21.45;;;15.70;93.10;;;;;;5062778;28;20529;-79
2022/03/23 10:31:37;;;;;;;26.50;20.38;;;15.80;93.30;;;;;;5067573;28;20182;-79
2022/03/23 10:34:10;;;;;;;32.83;19.65;;;15.70;92.40;;;;;;5066077;28;20123;-80
2022/03/23 10:36:39;;;;;;;29.88;19.20;;;15.90;93.00;;;;;;5060425;28;20029;-82
2022/03/23 10:39:11;;;;;;;31.23;20.25;;;16.00;93.00;;;;;;5060112;28;20127;-81
2022/03/23 10:41:37;;;;;;;28.92;19.92;;;15.90;91.90;;;;;;5059904;28;20044;-81
2022/03/23 10:44:03;;;;;;;27.52;18.58;;;15.90;93.00;;;;;;5060128;28;20049;-80
2022/03/23 10:46:29;;;;;;;28.13;17.60;;;16.10;92.90;;;;;;5052088;28;20044;-80
2022/03/23 10:49:03;;;;;;;33.30;18.65;;;16.00;91.30;;;;;;5069327;28;20503;-80
2022/03/23 10:51:36;;;;;;;26.17;18.67;;;16.10;91.10;;;;;;5077604;28;20045;-79
2022/03/23 10:54:20;;;;;;;23.05;17.95;;;16.20;93.00;;;;;;5075624;28;20049;-79
2022/03/23 10:56:46;;;;;;;28.52;20.38;;;16.20;92.50;;;;;;5061491;28;20109;-80
2022/03/23 10:59:25;;;;;;;26.67;16.33;;;16.30;92.00;;;;;;5066814;28;20505;-81
2022/03/23 11:01:59;;;;;;;25.65;16.02;;;16.30;90.00;;;;;;5069878;28;20060;-80
2022/03/23 11:04:29;;;;;;;21.13;15.77;;;16.40;91.10;;;;;;5064203;28;20492;-80
2022/03/23 11:06:58;;;;;;;20.52;12.70;;;16.30;91.00;;;;;;5068761;28;20048;-78
2022/03/23 11:18:16;;;;;;;35.70;12.98;;;16.50;88.10;;;;;;5064857;28;20068;-79
2022/03/23 11:20:48;;;;;;;28.27;13.43;;;16.70;89.10;;;;;;5062160;28;20045;-79
2022/03/23 11:23:23;;;;;;;23.55;13.02;;;16.70;88.50;;;;;;5067510;28;20051;-79
2022/03/23 11:25:55;;;;;;;26.92;14.57;;;16.70;86.70;;;;;;5068071;28;20067;-79
2022/03/23 11:28:22;;;;;;;29.45;12.10;;;16.60;85.80;;;;;;5068978;28;20123;-78
2022/03/23 11:30:49;;;;;;;18.23;9.27;;;16.70;86.90;;;;;;5070103;28;20044;-78
2022/03/23 11:33:17;;;;;;;22.88;11.68;;;16.90;87.00;;;;;;5069134;28;20048;-79
2022/03/23 11:35:49;;;;;;;24.23;13.32;;;16.70;84.90;;;;;;5059508;28;20045;-78
2022/03/23 11:38:23;;;;;;;23.05;12.80;;;16.90;89.10;;;;;;5063039;28;20430;-78
2022/03/23 11:40:50;;;;;;;23.73;12.68;;;16.90;88.40;;;;;;5070523;28;20429;-81
2022/03/23 11:43:19;;;;;;;21.33;13.43;;;16.90;86.70;;;;;;5068014;28;20105;-81
2022/03/23 11:45:47;;;;;;;23.27;11.52;;;17.00;88.00;;;;;;5060005;28;20406;-78
2022/03/23 11:48:34;;;;;;;24.30;11.18;;;16.90;86.70;;;;;;5058083;28;20506;-79
2022/03/23 11:51:40;;;;;;;29.48;14.25;;;17.20;87.80;;;;;;5069391;28;20041;-78
2022/03/23 11:57:22;;;;;;;24.40;11.70;;;17.00;83.60;;;;;;5053339;28;20115;-80
2022/03/23 11:59:47;;;;;;;19.35;11.32;;;17.30;89.70;;;;;;5068581;28;20116;-80
2022/03/23 12:02:17;;;;;;;22.00;10.77;;;17.30;85.90;;;;;;5068230;28;20124;-80
2022/03/23 12:04:42;;;;;;;19.50;11.50;;;17.50;89.10;;;;;;5069329;28;20083;-80
2022/03/23 12:07:11;;;;;;;21.25;9.95;;;17.40;87.10;;;;;;5069360;28;20072;-79
2022/03/23 12:09:42;;;;;;;22.85;12.90;;;17.60;88.20;;;;;;5038420;28;20131;-80
2022/03/23 12:12:12;;;;;;;29.88;13.45;;;17.40;84.40;;;;;;5063598;28;20403;-80
2022/03/23 12:14:39;;;;;;;27.50;10.02;;;17.40;86.80;;;;;;5052524;28;20043;-78
2022/03/23 12:17:07;;;;;;;15.73;11.02;;;17.40;84.40;;;;;;5054153;28;20089;-80
2022/03/23 12:19:57;;;;;;;24.75;11.85;;;17.40;85.20;;;;;;5067868;28;20068;-79
2022/03/23 12:22:52;;;;;;;19.95;11.57;;;17.50;85.70;;;;;;5068328;28;20123;-79
2022/03/23 12:25:26;;;;;;;19.35;11.52;;;17.30;84.70;;;;;;5062299;28;20040;-79
2022/03/23 12:28:14;;;;;;;20.67;10.25;;;17.30;84.00;;;;;;5068736;28;20040;-79
2022/03/23 12:30:58;;;;;;;21.73;8.60;;;17.30;86.10;;;;;;5078108;28;20123;-78
2022/03/23 12:33:29;;;;;;;20.17;10.23;;;17.40;85.80;;;;;;5070620;28;20481;-79
2022/03/23 12:36:04;;;;;;;19.55;9.38;;;17.60;85.60;;;;;;5071218;28;20072;-77
2022/03/23 12:38:31;;;;;;;22.85;11.18;;;17.50;85.80;;;;;;5057811;28;20043;-78
2022/03/23 12:41:08;;;;;;;21.25;10.05;;;17.50;84.10;;;;;;5059892;28;20048;-78
2022/03/23 12:43:46;;;;;;;21.95;10.75;;;17.70;87.90;;;;;;5068943;28;20040;-79
2022/03/23 12:46:20;;;;;;;22.42;10.43;;;17.70;85.20;;;;;;5069181;28;20565;-80
2022/03/23 12:57:52;;;;;;;16.17;6.03;;;17.50;87.90;;;;;;5048407;28;20053;-80
2022/03/23 13:00:29;;;;;;;27.95;8.57;;;17.70;90.10;;;;;;5061069;28;20040;-80
2022/03/23 13:03:22;;;;;;;22.70;7.85;;;17.80;88.40;;;;;;5068211;28;20509;-80
2022/03/23 13:05:59;;;;;;;19.77;7.85;;;17.60;89.40;;;;;;5068660;28;20131;-79
2022/03/23 13:08:30;;;;;;;37.92;11.43;;;17.60;86.70;;;;;;5057866;28;20059;-80
2022/03/23 13:11:06;;;;;;;24.38;10.45;;;17.60;85.80;;;;;;5054085;28;20053;-77
2022/03/23 13:13:33;;;;;;;19.48;7.35;;;17.70;86.10;;;;;;5074107;28;20056;-80